North Amherst, Massachusetts
Current Conditions -  °F | °C
As of 11:58 AM on Sunday 23 Nov 2014 (Local Time) from KCEF Reporting Station
Clear Clear  
Wind Chill: 53°   Ceiling: Unl
Heat Index: 53°   Visibility: 10mi
Dew Point: 28°   Wind: 6mph
Humidity: 38%   Direction: 200°SSW
Pressure: 30.12"   Gusts: NA
Location:  42.41°N, 72.53°W
Report Text: KCEF 231658Z AUTO 20005KT 10SM CLR 12/M02 A3012 RMK AO2 SLP207 T01151025
Loading
Personal Weather Stations






























Interactive Weather Map New forecast layout! Learn more

10-Day Weather Forecast

Advertisements
Track Severe Weather on mobile